Terminal Aerodrome Forecast
Issued by NWS

Home | Current Version | Previous Version | Text Only | Print | Product List | Glossary On
Versions: 1 2 3 4 5 6 7 8 9 10 11 12 13 14
866
FTUS41 KPHI 231720
TAFMIV
TAF
KMIV 231720Z 2318/2418 14008KT P6SM SCT250
     FM240000 VRB02KT P6SM SCT250
     FM241200 11006KT P6SM SCT040 BKN150
     FM241600 11012G22KT P6SM BKN040 OVC120=

USA.gov is the U.S. government's official web portal to all federal, state and local government web resources and services.